createdAt,value
2022-07-25T00:01:54.664Z,23.50
2022-07-25T00:04:27.156Z,23.40
2022-07-25T00:06:57.504Z,23.40
2022-07-25T00:09:27.727Z,23.40
2022-07-25T00:11:57.962Z,23.40
2022-07-25T00:14:30.773Z,23.40
2022-07-25T00:17:01.062Z,23.40
2022-07-25T00:19:31.259Z,23.40
2022-07-25T00:22:01.671Z,23.30
2022-07-25T00:24:31.980Z,23.30
2022-07-25T00:27:02.972Z,23.30
2022-07-25T00:29:36.120Z,23.30
2022-07-25T00:32:06.622Z,23.30
2022-07-25T00:34:37.083Z,23.30
2022-07-25T00:37:08.784Z,23.20
2022-07-25T00:39:39.232Z,23.20
2022-07-25T00:42:10.084Z,23.10
2022-07-25T00:44:43.178Z,23.10
2022-07-25T00:47:13.815Z,23.10
2022-07-25T00:49:44.193Z,23.00
2022-07-25T00:52:14.613Z,23.00
2022-07-25T00:54:45.291Z,23.00
2022-07-25T00:57:15.642Z,23.00
2022-07-25T00:59:48.697Z,23.00
2022-07-25T01:02:18.997Z,22.90
2022-07-25T01:04:49.276Z,22.90
2022-07-25T01:07:20.400Z,23.00
2022-07-25T01:09:50.774Z,23.00
2022-07-25T01:12:21.542Z,23.00
2022-07-25T01:14:54.360Z,22.90
2022-07-25T01:17:24.560Z,22.90
2022-07-25T01:19:54.730Z,22.90
2022-07-25T01:22:27.620Z,23.00
2022-07-25T01:24:57.782Z,22.90
2022-07-25T01:27:28.020Z,22.90
2022-07-25T01:38:44.354Z,22.70
2022-07-25T01:41:14.619Z,22.80
2022-07-25T01:43:52.900Z,22.70
2022-07-25T01:46:23.247Z,22.80
2022-07-25T01:48:53.724Z,22.70
2022-07-25T01:51:26.490Z,22.60
2022-07-25T01:53:59.851Z,22.70
2022-07-25T01:56:31.810Z,22.70
2022-07-25T01:59:02.479Z,22.60
2022-07-25T02:01:32.767Z,22.50
2022-07-25T02:04:03.342Z,22.50
2022-07-25T02:06:34.473Z,22.50
2022-07-25T02:09:08.042Z,22.50
2022-07-25T02:11:38.282Z,22.40
2022-07-25T02:14:08.860Z,22.40
2022-07-25T02:16:39.446Z,22.40
2022-07-25T02:19:09.879Z,22.30
2022-07-25T02:21:40.216Z,22.30
2022-07-25T02:24:13.278Z,22.30
2022-07-25T02:26:43.571Z,22.40
2022-07-25T02:29:13.790Z,22.40
2022-07-25T02:31:44.016Z,22.30
2022-07-25T02:34:15.275Z,22.20
2022-07-25T02:36:45.791Z,22.10
2022-07-25T02:39:18.815Z,21.90
2022-07-25T02:41:49.029Z,21.60
2022-07-25T02:44:19.324Z,21.50
2022-07-25T02:46:49.474Z,21.40
2022-07-25T02:49:19.842Z,21.20
2022-07-25T02:51:50.164Z,21.00
2022-07-25T02:54:23.083Z,21.00
2022-07-25T02:56:53.249Z,20.90
2022-07-25T02:59:23.600Z,20.80
2022-07-25T03:01:53.941Z,20.80
2022-07-25T03:04:25.683Z,20.80
2022-07-25T03:06:56.018Z,20.90
2022-07-25T03:09:28.950Z,21.20
2022-07-25T03:11:59.280Z,21.30
2022-07-25T03:14:29.600Z,21.50
2022-07-25T03:16:59.843Z,21.50
2022-07-25T03:19:30.372Z,21.40
2022-07-25T03:22:00.532Z,21.40
2022-07-25T03:24:33.373Z,21.60
2022-07-25T03:27:03.632Z,21.70
2022-07-25T03:29:33.882Z,21.80
2022-07-25T03:32:04.642Z,21.80
2022-07-25T03:34:35.099Z,21.80
2022-07-25T03:37:05.786Z,21.80
2022-07-25T03:39:38.811Z,21.80
2022-07-25T03:42:09.214Z,21.70
2022-07-25T03:44:39.829Z,21.70
2022-07-25T03:47:10.174Z,21.60
2022-07-25T03:49:50.636Z,21.60
2022-07-25T03:52:20.873Z,21.60
2022-07-25T03:54:53.809Z,21.70
2022-07-25T03:57:23.982Z,21.80
2022-07-25T03:59:54.308Z,21.80
2022-07-25T04:02:24.593Z,21.80
2022-07-25T04:04:55.235Z,21.90
2022-07-25T04:07:25.449Z,21.90
2022-07-25T04:09:58.392Z,22.00
2022-07-25T04:12:28.584Z,22.00
2022-07-25T04:14:58.905Z,22.10
2022-07-25T04:17:29.225Z,22.10
2022-07-25T04:19:59.534Z,22.10
2022-07-25T04:22:29.773Z,22.20
2022-07-25T04:25:02.885Z,22.20
2022-07-25T04:27:33.312Z,22.20
2022-07-25T04:30:03.998Z,22.20
2022-07-25T04:32:34.172Z,22.30
2022-07-25T04:35:04.470Z,22.20
2022-07-25T04:37:36.121Z,22.20
2022-07-25T04:40:11.456Z,22.30
2022-07-25T04:42:41.663Z,22.30
2022-07-25T04:45:13.818Z,22.30
2022-07-25T04:47:44.015Z,22.40
2022-07-25T04:50:14.398Z,22.40
2022-07-25T04:52:44.869Z,22.40
2022-07-25T04:55:17.753Z,22.50
2022-07-25T04:57:47.967Z,22.60
2022-07-25T05:00:19.690Z,22.70
2022-07-25T05:02:49.906Z,22.80
2022-07-25T05:05:21.528Z,23.00
2022-07-25T05:07:53.079Z,23.20
2022-07-25T05:10:26.026Z,23.30
2022-07-25T05:12:56.395Z,23.40
2022-07-25T05:15:26.927Z,23.60
2022-07-25T05:17:57.109Z,23.80
2022-07-25T05:20:27.811Z,24.10
2022-07-25T05:22:57.975Z,24.40
2022-07-25T05:25:30.887Z,24.50
2022-07-25T05:28:02.069Z,24.70
2022-07-25T05:30:35.382Z,24.90
2022-07-25T05:33:09.603Z,25.20
2022-07-25T05:35:40.166Z,25.40
2022-07-25T05:38:10.292Z,25.50
2022-07-25T05:40:43.273Z,26.00
2022-07-25T05:43:13.722Z,27.20
2022-07-25T05:45:44.272Z,28.70
2022-07-25T05:48:14.437Z,30.20
2022-07-25T05:50:46.091Z,31.70
2022-07-25T05:53:16.234Z,33.10
2022-07-25T05:55:49.099Z,34.50
2022-07-25T05:58:19.242Z,35.80
2022-07-25T06:00:51.091Z,36.50
2022-07-25T06:03:21.776Z,36.50
2022-07-25T06:05:52.260Z,35.80
2022-07-25T06:08:22.527Z,35.30
2022-07-25T06:10:55.580Z,34.80
2022-07-25T06:13:25.896Z,34.20
2022-07-25T06:15:58.629Z,34.20
2022-07-25T06:18:30.099Z,34.20
2022-07-25T06:21:00.543Z,33.90
2022-07-25T06:23:30.979Z,34.80
2022-07-25T06:26:03.852Z,36.20
2022-07-25T06:28:34.171Z,37.10
2022-07-25T06:31:04.625Z,37.50
2022-07-25T06:33:34.848Z,37.80
2022-07-25T06:36:05.064Z,38.90
2022-07-25T06:38:35.318Z,39.20
2022-07-25T06:41:08.418Z,39.30
2022-07-25T06:43:38.550Z,40.10
2022-07-25T06:46:09.465Z,40.50
2022-07-25T06:48:40.049Z,39.60
2022-07-25T06:51:10.418Z,39.00
2022-07-25T06:53:40.578Z,38.40
2022-07-25T06:56:17.619Z,37.60
2022-07-25T06:58:48.100Z,36.30
2022-07-25T07:01:18.384Z,34.40
2022-07-25T07:03:48.726Z,33.50
2022-07-25T07:06:19.232Z,32.50
2022-07-25T07:08:49.464Z,31.90
2022-07-25T07:11:22.655Z,31.30
2022-07-25T07:13:52.849Z,31.00
2022-07-25T07:16:23.113Z,31.10
2022-07-25T07:18:53.423Z,31.00
2022-07-25T07:21:23.827Z,30.70
2022-07-25T07:23:54.363Z,30.80
2022-07-25T07:26:27.835Z,31.00
2022-07-25T07:28:58.069Z,31.10
2022-07-25T07:31:28.317Z,30.90
2022-07-25T07:34:00.006Z,31.40
2022-07-25T07:36:30.299Z,31.80
2022-07-25T07:39:00.667Z,31.90
2022-07-25T07:41:33.625Z,31.90
2022-07-25T07:44:03.778Z,31.60
2022-07-25T07:46:34.034Z,31.70
2022-07-25T07:49:04.788Z,31.70
2022-07-25T07:51:35.302Z,31.70
2022-07-25T07:54:17.924Z,31.60
2022-07-25T07:56:50.818Z,31.40
2022-07-25T07:59:21.157Z,31.30
2022-07-25T08:01:51.565Z,31.10
2022-07-25T08:04:21.859Z,30.80
2022-07-25T08:06:52.077Z,30.80
2022-07-25T08:09:25.832Z,30.60
2022-07-25T08:11:58.842Z,30.50
2022-07-25T08:14:29.028Z,30.30
2022-07-25T08:16:59.323Z,30.20
2022-07-25T08:19:29.407Z,30.00
2022-07-25T08:21:59.696Z,29.90
2022-07-25T08:24:29.951Z,29.80
2022-07-25T08:27:02.861Z,29.80
2022-07-25T08:29:33.027Z,29.80
2022-07-25T08:32:03.277Z,29.90
2022-07-25T08:34:33.499Z,30.00
2022-07-25T08:37:03.816Z,30.10
2022-07-25T08:39:34.064Z,30.10
2022-07-25T08:42:10.972Z,30.10
2022-07-25T08:44:46.763Z,30.00
2022-07-25T08:47:18.637Z,29.90
2022-07-25T08:49:49.578Z,29.80
2022-07-25T08:52:21.681Z,29.90
2022-07-25T08:54:53.876Z,30.10
2022-07-25T08:57:26.720Z,30.50
2022-07-25T09:00:00.019Z,31.20
2022-07-25T09:02:31.976Z,31.70
2022-07-25T09:05:02.921Z,31.70
2022-07-25T09:07:36.294Z,32.30
2022-07-25T09:10:18.447Z,33.20
2022-07-25T09:12:59.909Z,33.80
2022-07-25T09:15:32.998Z,34.10
2022-07-25T09:18:06.492Z,34.70
2022-07-25T09:20:47.133Z,34.90
2022-07-25T09:23:29.704Z,35.20
2022-07-25T09:26:07.917Z,35.30
2022-07-25T09:28:48.268Z,35.40
2022-07-25T09:31:20.711Z,35.40
2022-07-25T09:36:57.782Z,34.10
2022-07-25T09:39:43.468Z,33.70
2022-07-25T09:42:26.960Z,34.40
2022-07-25T09:45:13.077Z,35.10
2022-07-25T09:47:56.335Z,35.40
2022-07-25T09:50:29.212Z,35.10
2022-07-25T09:53:03.094Z,34.30
2022-07-25T09:55:33.933Z,34.60
2022-07-25T09:58:04.218Z,34.30
2022-07-25T10:00:37.562Z,34.00
2022-07-25T10:03:32.175Z,33.70
2022-07-25T10:06:22.252Z,33.20
2022-07-25T10:08:54.241Z,32.80
2022-07-25T10:11:27.812Z,32.40
2022-07-25T10:13:59.329Z,31.80
2022-07-25T10:16:32.232Z,31.30
2022-07-25T10:19:02.922Z,30.70
2022-07-25T10:21:33.301Z,30.10
2022-07-25T10:24:07.464Z,29.30
2022-07-25T10:26:41.252Z,28.60
2022-07-25T10:29:14.868Z,28.30
2022-07-25T10:31:51.458Z,28.10
2022-07-25T10:34:33.770Z,27.80
2022-07-25T10:37:15.288Z,27.80
2022-07-25T10:39:48.767Z,27.90
2022-07-25T10:42:23.599Z,28.10
2022-07-25T10:44:58.643Z,28.30
2022-07-25T10:47:32.327Z,28.50
2022-07-25T10:50:19.148Z,28.50
2022-07-25T10:53:07.868Z,28.50
2022-07-25T10:55:39.949Z,28.10
2022-07-25T10:58:18.268Z,27.70
2022-07-25T11:00:51.509Z,27.60
2022-07-25T11:03:25.160Z,27.50
2022-07-25T11:05:56.221Z,27.80
2022-07-25T11:08:35.830Z,28.00
2022-07-25T11:11:06.360Z,28.40
2022-07-25T11:13:41.344Z,28.80
2022-07-25T11:16:13.031Z,29.00
2022-07-25T11:18:45.847Z,28.80
2022-07-25T11:21:16.220Z,29.00
2022-07-25T11:23:53.643Z,28.80
2022-07-25T11:26:23.943Z,28.80
2022-07-25T11:28:54.695Z,28.90
2022-07-25T11:31:27.892Z,28.90
2022-07-25T11:34:00.912Z,29.20
2022-07-25T11:36:33.223Z,29.60
2022-07-25T11:39:03.748Z,29.80
2022-07-25T11:41:34.334Z,30.00
2022-07-25T11:44:04.550Z,29.90
2022-07-25T11:46:47.391Z,29.80
2022-07-25T11:49:20.348Z,30.30
2022-07-25T11:51:50.665Z,30.70
2022-07-25T11:54:20.876Z,31.20
2022-07-25T11:56:51.173Z,31.20
2022-07-25T11:59:21.590Z,31.30
2022-07-25T12:01:52.930Z,31.60
2022-07-25T12:04:25.837Z,31.60
2022-07-25T12:07:07.281Z,31.30
2022-07-25T12:09:37.468Z,30.90
2022-07-25T12:12:08.805Z,30.50
2022-07-25T12:14:46.499Z,30.40
2022-07-25T12:17:16.794Z,30.40
2022-07-25T12:19:50.404Z,30.80
2022-07-25T12:22:21.184Z,31.30
2022-07-25T12:24:51.669Z,31.30
2022-07-25T12:27:21.831Z,31.00
2022-07-25T12:29:51.957Z,31.00
2022-07-25T12:32:22.356Z,30.90
2022-07-25T12:34:55.440Z,30.60
2022-07-25T12:37:25.863Z,31.00
2022-07-25T12:39:56.185Z,31.30
2022-07-25T12:42:27.279Z,31.10
2022-07-25T12:44:57.975Z,30.90
2022-07-25T12:47:30.053Z,30.60
2022-07-25T12:50:02.952Z,30.40
2022-07-25T12:52:33.369Z,30.20
2022-07-25T12:55:03.692Z,30.00
2022-07-25T12:57:34.106Z,29.70
2022-07-25T13:00:04.353Z,29.40
2022-07-25T13:02:34.725Z,29.30
2022-07-25T13:05:09.087Z,29.40
2022-07-25T13:07:39.713Z,29.60
2022-07-25T13:10:12.660Z,29.30
2022-07-25T13:12:43.263Z,29.40
2022-07-25T13:15:14.549Z,29.30
2022-07-25T13:17:44.898Z,29.50
2022-07-25T13:20:18.372Z,29.70
2022-07-25T13:23:07.586Z,30.10
2022-07-25T13:25:37.888Z,30.40
2022-07-25T13:28:11.009Z,30.30
2022-07-25T13:30:41.855Z,30.60
2022-07-25T13:33:12.358Z,30.50
2022-07-25T13:35:45.315Z,30.60
2022-07-25T13:38:15.735Z,31.10
2022-07-25T13:40:46.024Z,31.20
2022-07-25T13:43:17.657Z,31.00
2022-07-25T13:45:48.678Z,30.70
2022-07-25T13:48:29.570Z,30.60
2022-07-25T13:51:03.226Z,30.20
2022-07-25T13:53:33.664Z,30.00
2022-07-25T13:56:04.010Z,29.80
2022-07-25T13:58:35.242Z,30.00
2022-07-25T14:01:05.635Z,30.20
2022-07-25T14:03:37.046Z,30.20
2022-07-25T14:06:13.593Z,30.00
2022-07-25T14:08:44.217Z,29.90
2022-07-25T14:11:14.442Z,30.00
2022-07-25T14:13:45.533Z,29.90
2022-07-25T14:16:19.209Z,29.80
2022-07-25T14:18:49.650Z,29.80
2022-07-25T14:21:22.401Z,29.90
2022-07-25T14:23:53.898Z,30.10
2022-07-25T14:26:25.890Z,30.00
2022-07-25T14:28:56.659Z,30.10
2022-07-25T14:31:27.039Z,29.60
2022-07-25T14:33:58.239Z,29.40
2022-07-25T14:36:31.071Z,29.20
2022-07-25T14:39:01.447Z,29.10
2022-07-25T14:41:31.695Z,29.10
2022-07-25T14:44:02.464Z,28.90
2022-07-25T14:46:32.851Z,28.90
2022-07-25T14:49:03.621Z,29.10
2022-07-25T14:51:36.663Z,29.20
2022-07-25T14:54:07.122Z,29.10
2022-07-25T14:56:37.433Z,29.00
2022-07-25T14:59:08.486Z,29.20
2022-07-25T15:01:41.297Z,29.20
2022-07-25T15:04:11.940Z,28.90
2022-07-25T15:06:44.734Z,28.60
2022-07-25T15:09:18.356Z,28.50
2022-07-25T15:11:48.976Z,28.10
2022-07-25T15:14:19.284Z,28.10
2022-07-25T15:16:49.536Z,27.90
2022-07-25T15:19:20.784Z,27.60
2022-07-25T15:21:53.502Z,27.70
2022-07-25T15:24:28.916Z,27.30
2022-07-25T15:26:59.950Z,27.00
2022-07-25T15:29:30.643Z,26.70
2022-07-25T15:32:01.268Z,26.50
2022-07-25T15:34:32.583Z,26.40
2022-07-25T15:37:05.447Z,26.30
2022-07-25T15:39:35.831Z,26.30
2022-07-25T15:42:06.456Z,26.30
2022-07-25T15:44:36.708Z,26.20
2022-07-25T15:47:09.526Z,26.00
2022-07-25T15:49:40.664Z,26.10
2022-07-25T15:52:13.513Z,26.50
2022-07-25T15:54:43.784Z,26.60
2022-07-25T15:57:14.044Z,26.40
2022-07-25T15:59:44.434Z,26.60
2022-07-25T16:02:16.673Z,26.60
2022-07-25T16:04:48.129Z,26.60
2022-07-25T16:07:46.185Z,26.50
2022-07-25T16:10:19.929Z,26.20
2022-07-25T16:12:51.991Z,26.20
2022-07-25T16:15:26.484Z,26.20
2022-07-25T16:18:02.582Z,25.90
2022-07-25T16:20:36.759Z,25.80
2022-07-25T16:23:13.233Z,25.90
2022-07-25T16:25:46.719Z,25.90
2022-07-25T16:28:19.227Z,25.80
2022-07-25T16:30:51.987Z,25.80
2022-07-25T16:33:23.555Z,25.80
2022-07-25T16:35:54.937Z,26.00
2022-07-25T16:38:29.368Z,26.30
2022-07-25T16:41:01.772Z,26.50
2022-07-25T16:43:33.622Z,26.60
2022-07-25T16:46:05.915Z,26.80
2022-07-25T16:48:39.155Z,26.80
2022-07-25T16:51:11.104Z,26.90
2022-07-25T16:53:44.115Z,26.90
2022-07-25T16:56:14.606Z,26.80
2022-07-25T16:58:46.541Z,26.50
2022-07-25T17:01:17.920Z,26.50
2022-07-25T17:03:48.249Z,26.60
2022-07-25T17:06:19.286Z,26.70
2022-07-25T17:08:52.103Z,26.90
2022-07-25T17:11:22.610Z,27.00
2022-07-25T17:13:52.768Z,26.90
2022-07-25T17:16:23.232Z,26.60
2022-07-25T17:18:53.507Z,26.50
2022-07-25T17:21:24.204Z,26.50
2022-07-25T17:23:57.036Z,26.40
2022-07-25T17:26:27.602Z,26.40
2022-07-25T17:28:59.601Z,26.20
2022-07-25T17:31:29.977Z,26.10
2022-07-25T17:34:00.212Z,26.00
2022-07-25T17:36:30.568Z,25.90
2022-07-25T17:39:03.960Z,25.80
2022-07-25T17:41:34.451Z,25.70
2022-07-25T17:44:09.962Z,25.50
2022-07-25T17:46:42.202Z,25.40
2022-07-25T17:49:12.860Z,25.30
2022-07-25T17:51:43.440Z,25.20
2022-07-25T17:54:16.304Z,25.10
2022-07-25T17:56:47.102Z,25.20
2022-07-25T17:59:17.344Z,25.20
2022-07-25T18:01:47.691Z,25.30
2022-07-25T18:04:17.986Z,25.30
2022-07-25T18:06:48.296Z,25.30
2022-07-25T18:09:24.218Z,25.30
2022-07-25T18:11:55.040Z,25.20
2022-07-25T18:14:25.561Z,25.00
2022-07-25T18:16:55.904Z,25.00
2022-07-25T18:19:26.535Z,24.90
2022-07-25T18:21:56.936Z,24.80
2022-07-25T18:24:30.311Z,24.80
2022-07-25T18:27:02.068Z,24.60
2022-07-25T18:29:32.688Z,24.60
2022-07-25T18:32:05.133Z,24.70
2022-07-25T18:34:36.602Z,24.50
2022-07-25T18:37:08.229Z,24.60
2022-07-25T18:39:42.276Z,24.70
2022-07-25T18:42:12.663Z,24.80
2022-07-25T18:44:42.846Z,24.80
2022-07-25T18:47:13.279Z,24.80
2022-07-25T18:49:44.457Z,24.80
2022-07-25T18:52:14.996Z,24.80
2022-07-25T18:54:47.802Z,24.70
2022-07-25T18:57:18.744Z,24.50
2022-07-25T18:59:49.116Z,24.40
2022-07-25T19:02:19.387Z,24.40
2022-07-25T19:04:49.578Z,24.20
2022-07-25T19:07:20.019Z,24.10
2022-07-25T19:09:53.674Z,24.00
2022-07-25T19:12:26.356Z,23.90
2022-07-25T19:14:56.866Z,23.80
2022-07-25T19:17:27.295Z,23.80
2022-07-25T19:19:57.810Z,23.60
2022-07-25T19:22:28.110Z,23.50
2022-07-25T19:25:01.491Z,23.40
2022-07-25T19:27:31.994Z,23.30
2022-07-25T19:30:02.200Z,23.20
2022-07-25T19:32:32.487Z,23.20
2022-07-25T19:35:02.729Z,23.00
2022-07-25T19:40:30.401Z,22.90
2022-07-25T19:43:01.367Z,22.80
2022-07-25T19:45:32.725Z,22.80
2022-07-25T19:48:03.255Z,22.70
2022-07-25T19:50:33.549Z,22.60
2022-07-25T19:53:04.432Z,22.60
2022-07-25T19:55:37.451Z,22.60
2022-07-25T19:58:08.482Z,22.60
2022-07-25T20:00:39.832Z,22.50
2022-07-25T20:03:10.159Z,22.50
2022-07-25T20:05:42.532Z,22.60
2022-07-25T20:08:12.649Z,22.50
2022-07-25T20:10:47.421Z,22.50
2022-07-25T20:13:18.022Z,22.40
2022-07-25T20:15:48.362Z,22.40
2022-07-25T20:18:19.759Z,22.20
2022-07-25T20:20:52.538Z,22.20
2022-07-25T20:23:22.735Z,22.10
2022-07-25T20:25:55.747Z,22.10
2022-07-25T20:28:26.560Z,22.10
2022-07-25T20:30:57.513Z,22.00
2022-07-25T20:33:28.143Z,22.10
2022-07-25T20:35:59.342Z,21.90
2022-07-25T20:38:32.306Z,21.90
2022-07-25T20:41:05.346Z,21.70
2022-07-25T20:43:37.946Z,21.70
2022-07-25T20:46:09.547Z,21.70
2022-07-25T20:48:40.345Z,21.70
2022-07-25T20:51:10.886Z,21.70
2022-07-25T20:53:41.917Z,21.60
2022-07-25T20:56:14.774Z,21.60
2022-07-25T20:58:45.470Z,21.50
2022-07-25T21:01:16.007Z,21.40
2022-07-25T21:03:46.383Z,21.30
2022-07-25T21:06:16.740Z,21.30
2022-07-25T21:08:46.917Z,21.20
2022-07-25T21:11:19.836Z,21.10
2022-07-25T21:13:50.104Z,21.10
2022-07-25T21:16:20.447Z,21.00
2022-07-25T21:18:50.690Z,20.90
2022-07-25T21:21:20.983Z,20.80
2022-07-25T21:23:51.221Z,20.80
2022-07-25T21:26:24.079Z,20.80
2022-07-25T21:28:54.411Z,20.90
2022-07-25T21:31:24.874Z,20.90
2022-07-25T21:33:55.134Z,21.00
2022-07-25T21:36:25.468Z,21.10
2022-07-25T21:38:55.702Z,21.10
2022-07-25T21:41:28.428Z,21.10
2022-07-25T21:43:59.202Z,21.10
2022-07-25T21:46:29.989Z,21.10
2022-07-25T21:49:13.491Z,21.20
2022-07-25T21:51:44.724Z,21.30
2022-07-25T21:54:33.368Z,21.20
2022-07-25T21:57:06.610Z,21.10
2022-07-25T21:59:43.756Z,21.10
2022-07-25T22:02:14.767Z,21.10
2022-07-25T22:04:45.210Z,21.10
2022-07-25T22:07:15.418Z,21.20
2022-07-25T22:09:45.807Z,21.20
2022-07-25T22:12:18.746Z,21.30
2022-07-25T22:14:49.072Z,21.40
2022-07-25T22:17:19.233Z,21.30
2022-07-25T22:19:49.615Z,21.30
2022-07-25T22:22:20.093Z,21.30
2022-07-25T22:24:50.357Z,21.30
2022-07-25T22:27:23.254Z,21.30
2022-07-25T22:29:53.527Z,21.30
2022-07-25T22:32:23.730Z,21.30
2022-07-25T22:34:54.099Z,21.40
2022-07-25T22:37:24.317Z,21.40
2022-07-25T22:40:00.586Z,21.40
2022-07-25T22:42:33.880Z,21.40
2022-07-25T22:45:04.214Z,21.30
2022-07-25T22:47:34.655Z,21.20
2022-07-25T22:50:05.475Z,21.10
2022-07-25T22:52:36.079Z,21.10
2022-07-25T22:55:07.217Z,21.20
2022-07-25T22:57:40.519Z,21.10
2022-07-25T23:00:14.078Z,21.30
2022-07-25T23:02:44.380Z,21.30
2022-07-25T23:05:14.772Z,21.30
2022-07-25T23:07:45.251Z,21.30
2022-07-25T23:10:15.612Z,21.20
2022-07-25T23:12:48.462Z,21.10
2022-07-25T23:15:18.862Z,21.00
2022-07-25T23:17:49.075Z,20.90
2022-07-25T23:20:19.444Z,20.80
2022-07-25T23:22:49.681Z,20.60
2022-07-25T23:25:22.636Z,20.50
2022-07-25T23:27:55.369Z,20.50
2022-07-25T23:30:26.008Z,20.50
2022-07-25T23:32:56.183Z,20.50
2022-07-25T23:35:26.709Z,20.50
2022-07-25T23:37:56.943Z,20.50
2022-07-25T23:40:27.219Z,20.50
2022-07-25T23:43:00.145Z,20.40
2022-07-25T23:45:30.721Z,20.30
2022-07-25T23:48:01.020Z,20.30
2022-07-25T23:50:31.344Z,20.50
2022-07-25T23:53:01.706Z,20.60
2022-07-25T23:55:32.323Z,20.50
2022-07-25T23:58:05.203Z,20.50
